sensor_id;sensor_type;location;lat;lon;timestamp;P1;durP1;ratioP1;P2;durP2;ratioP2
43150;SDS011;28755;51.478;5.702;2024-01-06T00:00:30;61.75;;;34.47;;
43150;SDS011;28755;51.478;5.702;2024-01-06T00:02:56;59.55;;;33.22;;
43150;SDS011;28755;51.478;5.702;2024-01-06T00:05:21;63.92;;;34.17;;
43150;SDS011;28755;51.478;5.702;2024-01-06T00:07:47;60.45;;;33.70;;
43150;SDS011;28755;51.478;5.702;2024-01-06T00:10:12;62.83;;;33.55;;
43150;SDS011;28755;51.478;5.702;2024-01-06T00:12:38;61.78;;;33.63;;
43150;SDS011;28755;51.478;5.702;2024-01-06T00:15:04;58.95;;;33.63;;
43150;SDS011;28755;51.478;5.702;2024-01-06T00:17:30;58.00;;;32.17;;
43150;SDS011;28755;51.478;5.702;2024-01-06T00:19:55;53.38;;;31.48;;
43150;SDS011;28755;51.478;5.702;2024-01-06T00:22:21;51.38;;;30.92;;
43150;SDS011;28755;51.478;5.702;2024-01-06T00:24:46;52.50;;;31.85;;
43150;SDS011;28755;51.478;5.702;2024-01-06T00:27:13;57.25;;;32.33;;
43150;SDS011;28755;51.478;5.702;2024-01-06T00:29:40;56.20;;;30.60;;
43150;SDS011;28755;51.478;5.702;2024-01-06T00:32:05;52.80;;;30.23;;
43150;SDS011;28755;51.478;5.702;2024-01-06T00:34:31;52.40;;;31.88;;
43150;SDS011;28755;51.478;5.702;2024-01-06T00:36:57;48.30;;;29.63;;
43150;SDS011;28755;51.478;5.702;2024-01-06T00:39:22;48.78;;;29.08;;
43150;SDS011;28755;51.478;5.702;2024-01-06T00:41:48;46.17;;;28.17;;
43150;SDS011;28755;51.478;5.702;2024-01-06T00:44:13;47.03;;;28.13;;
43150;SDS011;28755;51.478;5.702;2024-01-06T00:46:39;43.47;;;27.25;;
43150;SDS011;28755;51.478;5.702;2024-01-06T00:49:04;44.83;;;27.58;;
43150;SDS011;28755;51.478;5.702;2024-01-06T00:51:30;48.72;;;28.42;;
43150;SDS011;28755;51.478;5.702;2024-01-06T00:53:56;48.15;;;29.05;;
43150;SDS011;28755;51.478;5.702;2024-01-06T00:56:22;45.65;;;27.38;;
43150;SDS011;28755;51.478;5.702;2024-01-06T00:58:47;43.92;;;26.85;;
43150;SDS011;28755;51.478;5.702;2024-01-06T01:01:13;48.83;;;27.73;;
43150;SDS011;28755;51.478;5.702;2024-01-06T01:03:39;49.88;;;27.50;;
43150;SDS011;28755;51.478;5.702;2024-01-06T01:06:04;50.20;;;26.15;;
43150;SDS011;28755;51.478;5.702;2024-01-06T01:08:30;39.67;;;23.63;;
43150;SDS011;28755;51.478;5.702;2024-01-06T01:10:57;38.10;;;22.23;;
43150;SDS011;28755;51.478;5.702;2024-01-06T01:13:22;43.13;;;23.85;;
43150;SDS011;28755;51.478;5.702;2024-01-06T01:15:48;39.72;;;20.77;;
43150;SDS011;28755;51.478;5.702;2024-01-06T01:18:14;38.58;;;21.05;;
43150;SDS011;28755;51.478;5.702;2024-01-06T01:20:39;41.85;;;21.88;;
43150;SDS011;28755;51.478;5.702;2024-01-06T01:23:07;39.80;;;21.25;;
43150;SDS011;28755;51.478;5.702;2024-01-06T01:25:32;41.05;;;22.08;;
43150;SDS011;28755;51.478;5.702;2024-01-06T01:27:58;37.33;;;21.98;;
43150;SDS011;28755;51.478;5.702;2024-01-06T01:30:24;36.22;;;20.75;;
43150;SDS011;28755;51.478;5.702;2024-01-06T01:32:50;38.53;;;20.67;;
43150;SDS011;28755;51.478;5.702;2024-01-06T01:35:15;39.45;;;21.15;;
43150;SDS011;28755;51.478;5.702;2024-01-06T01:37:41;38.55;;;20.67;;
43150;SDS011;28755;51.478;5.702;2024-01-06T01:40:06;35.58;;;19.80;;
43150;SDS011;28755;51.478;5.702;2024-01-06T01:42:33;36.03;;;20.77;;
43150;SDS011;28755;51.478;5.702;2024-01-06T01:44:59;33.33;;;19.58;;
43150;SDS011;28755;51.478;5.702;2024-01-06T01:47:24;33.92;;;19.85;;
43150;SDS011;28755;51.478;5.702;2024-01-06T01:49:51;36.13;;;20.67;;
43150;SDS011;28755;51.478;5.702;2024-01-06T01:52:19;33.78;;;18.67;;
43150;SDS011;28755;51.478;5.702;2024-01-06T01:54:45;34.78;;;19.83;;
43150;SDS011;28755;51.478;5.702;2024-01-06T01:57:11;36.78;;;19.27;;
43150;SDS011;28755;51.478;5.702;2024-01-06T01:59:38;32.67;;;18.33;;
43150;SDS011;28755;51.478;5.702;2024-01-06T02:02:04;29.63;;;17.52;;
43150;SDS011;28755;51.478;5.702;2024-01-06T02:04:31;30.02;;;17.75;;
43150;SDS011;28755;51.478;5.702;2024-01-06T02:06:56;30.05;;;17.00;;
43150;SDS011;28755;51.478;5.702;2024-01-06T02:09:22;30.63;;;17.52;;
43150;SDS011;28755;51.478;5.702;2024-01-06T02:11:51;29.98;;;17.17;;
43150;SDS011;28755;51.478;5.702;2024-01-06T02:14:17;30.92;;;16.95;;
43150;SDS011;28755;51.478;5.702;2024-01-06T02:16:43;29.85;;;16.67;;
43150;SDS011;28755;51.478;5.702;2024-01-06T02:19:09;28.95;;;17.63;;
43150;SDS011;28755;51.478;5.702;2024-01-06T02:21:39;26.98;;;16.23;;
43150;SDS011;28755;51.478;5.702;2024-01-06T02:24:07;30.83;;;17.15;;
43150;SDS011;28755;51.478;5.702;2024-01-06T02:26:33;30.27;;;16.38;;
43150;SDS011;28755;51.478;5.702;2024-01-06T02:28:58;28.15;;;17.02;;
43150;SDS011;28755;51.478;5.702;2024-01-06T02:31:24;26.55;;;16.17;;
43150;SDS011;28755;51.478;5.702;2024-01-06T02:33:49;27.95;;;16.92;;
43150;SDS011;28755;51.478;5.702;2024-01-06T02:36:15;27.85;;;15.93;;
43150;SDS011;28755;51.478;5.702;2024-01-06T02:38:41;28.48;;;17.63;;
43150;SDS011;28755;51.478;5.702;2024-01-06T02:41:06;24.13;;;16.15;;
43150;SDS011;28755;51.478;5.702;2024-01-06T02:43:32;26.92;;;16.58;;
43150;SDS011;28755;51.478;5.702;2024-01-06T02:45:57;26.35;;;16.13;;
43150;SDS011;28755;51.478;5.702;2024-01-06T02:48:23;24.77;;;15.55;;
43150;SDS011;28755;51.478;5.702;2024-01-06T02:50:49;24.83;;;15.52;;
43150;SDS011;28755;51.478;5.702;2024-01-06T02:53:14;25.05;;;15.18;;
43150;SDS011;28755;51.478;5.702;2024-01-06T02:55:40;25.13;;;15.43;;
43150;SDS011;28755;51.478;5.702;2024-01-06T02:58:05;25.38;;;15.27;;
43150;SDS011;28755;51.478;5.702;2024-01-06T03:00:31;22.42;;;14.70;;
43150;SDS011;28755;51.478;5.702;2024-01-06T03:02:57;24.05;;;15.15;;
43150;SDS011;28755;51.478;5.702;2024-01-06T03:05:22;23.98;;;14.68;;
43150;SDS011;28755;51.478;5.702;2024-01-06T03:07:48;24.45;;;14.70;;
43150;SDS011;28755;51.478;5.702;2024-01-06T03:10:13;19.83;;;13.40;;
43150;SDS011;28755;51.478;5.702;2024-01-06T03:12:39;20.88;;;13.98;;
43150;SDS011;28755;51.478;5.702;2024-01-06T03:15:05;19.15;;;12.10;;
43150;SDS011;28755;51.478;5.702;2024-01-06T03:17:31;20.35;;;13.48;;
43150;SDS011;28755;51.478;5.702;2024-01-06T03:19:57;21.80;;;13.02;;
43150;SDS011;28755;51.478;5.702;2024-01-06T03:22:23;19.95;;;12.50;;
43150;SDS011;28755;51.478;5.702;2024-01-06T03:24:48;20.50;;;12.70;;
43150;SDS011;28755;51.478;5.702;2024-01-06T03:27:14;18.33;;;12.30;;
43150;SDS011;28755;51.478;5.702;2024-01-06T03:29:39;18.05;;;12.30;;
43150;SDS011;28755;51.478;5.702;2024-01-06T03:32:05;17.17;;;11.73;;
43150;SDS011;28755;51.478;5.702;2024-01-06T03:34:31;19.15;;;12.35;;
43150;SDS011;28755;51.478;5.702;2024-01-06T03:36:57;17.05;;;11.50;;
43150;SDS011;28755;51.478;5.702;2024-01-06T03:39:22;19.90;;;11.63;;
43150;SDS011;28755;51.478;5.702;2024-01-06T03:41:48;15.07;;;10.32;;
43150;SDS011;28755;51.478;5.702;2024-01-06T03:44:14;15.35;;;10.55;;
43150;SDS011;28755;51.478;5.702;2024-01-06T03:46:39;16.17;;;10.65;;
43150;SDS011;28755;51.478;5.702;2024-01-06T03:49:05;14.15;;;9.80;;
43150;SDS011;28755;51.478;5.702;2024-01-06T03:51:30;14.38;;;10.10;;
43150;SDS011;28755;51.478;5.702;2024-01-06T03:53:56;15.77;;;10.40;;
43150;SDS011;28755;51.478;5.702;2024-01-06T03:56:22;15.77;;;10.25;;
43150;SDS011;28755;51.478;5.702;2024-01-06T03:58:47;14.98;;;9.93;;
43150;SDS011;28755;51.478;5.702;2024-01-06T04:01:13;16.33;;;10.63;;
43150;SDS011;28755;51.478;5.702;2024-01-06T04:03:38;16.17;;;10.63;;
43150;SDS011;28755;51.478;5.702;2024-01-06T04:06:07;15.02;;;10.45;;
43150;SDS011;28755;51.478;5.702;2024-01-06T04:08:32;17.30;;;10.65;;
43150;SDS011;28755;51.478;5.702;2024-01-06T04:10:58;16.08;;;10.82;;
43150;SDS011;28755;51.478;5.702;2024-01-06T04:13:25;14.00;;;9.93;;
43150;SDS011;28755;51.478;5.702;2024-01-06T04:15:51;14.32;;;10.15;;
43150;SDS011;28755;51.478;5.702;2024-01-06T04:18:16;14.60;;;9.88;;
43150;SDS011;28755;51.478;5.702;2024-01-06T04:20:42;15.27;;;9.98;;
43150;SDS011;28755;51.478;5.702;2024-01-06T04:23:07;13.05;;;9.70;;
43150;SDS011;28755;51.478;5.702;2024-01-06T04:25:33;15.15;;;10.10;;
43150;SDS011;28755;51.478;5.702;2024-01-06T04:27:59;16.02;;;10.95;;
43150;SDS011;28755;51.478;5.702;2024-01-06T04:30:24;13.55;;;9.98;;
43150;SDS011;28755;51.478;5.702;2024-01-06T04:32:51;16.63;;;10.68;;
43150;SDS011;28755;51.478;5.702;2024-01-06T04:35:17;19.50;;;10.73;;
43150;SDS011;28755;51.478;5.702;2024-01-06T04:37:43;15.93;;;10.85;;
43150;SDS011;28755;51.478;5.702;2024-01-06T04:40:09;17.73;;;11.88;;
43150;SDS011;28755;51.478;5.702;2024-01-06T04:42:35;16.65;;;11.65;;
43150;SDS011;28755;51.478;5.702;2024-01-06T04:45:01;16.58;;;11.48;;
43150;SDS011;28755;51.478;5.702;2024-01-06T04:47:27;16.80;;;10.38;;
43150;SDS011;28755;51.478;5.702;2024-01-06T04:49:55;13.52;;;9.77;;
43150;SDS011;28755;51.478;5.702;2024-01-06T04:52:21;14.60;;;10.48;;
43150;SDS011;28755;51.478;5.702;2024-01-06T04:54:46;16.23;;;10.77;;
43150;SDS011;28755;51.478;5.702;2024-01-06T04:57:12;16.27;;;10.25;;
43150;SDS011;28755;51.478;5.702;2024-01-06T04:59:38;15.45;;;11.05;;
43150;SDS011;28755;51.478;5.702;2024-01-06T05:02:03;14.32;;;10.15;;
43150;SDS011;28755;51.478;5.702;2024-01-06T05:04:29;15.00;;;10.60;;
43150;SDS011;28755;51.478;5.702;2024-01-06T05:06:57;15.45;;;10.88;;
43150;SDS011;28755;51.478;5.702;2024-01-06T05:09:22;16.73;;;11.35;;
43150;SDS011;28755;51.478;5.702;2024-01-06T05:11:48;16.35;;;11.77;;
43150;SDS011;28755;51.478;5.702;2024-01-06T05:14:13;17.05;;;11.20;;
43150;SDS011;28755;51.478;5.702;2024-01-06T05:16:39;18.88;;;12.15;;
43150;SDS011;28755;51.478;5.702;2024-01-06T05:19:05;19.17;;;11.98;;
43150;SDS011;28755;51.478;5.702;2024-01-06T05:21:30;16.88;;;11.90;;
43150;SDS011;28755;51.478;5.702;2024-01-06T05:23:56;18.55;;;12.60;;
43150;SDS011;28755;51.478;5.702;2024-01-06T05:26:22;17.35;;;11.57;;
43150;SDS011;28755;51.478;5.702;2024-01-06T05:28:48;17.80;;;11.95;;
43150;SDS011;28755;51.478;5.702;2024-01-06T05:31:14;17.50;;;11.95;;
43150;SDS011;28755;51.478;5.702;2024-01-06T05:33:39;18.65;;;12.27;;
43150;SDS011;28755;51.478;5.702;2024-01-06T05:36:05;19.27;;;12.07;;
43150;SDS011;28755;51.478;5.702;2024-01-06T05:38:31;18.45;;;11.80;;
43150;SDS011;28755;51.478;5.702;2024-01-06T05:40:56;17.15;;;12.43;;
43150;SDS011;28755;51.478;5.702;2024-01-06T05:43:22;18.70;;;12.48;;
43150;SDS011;28755;51.478;5.702;2024-01-06T05:45:47;17.80;;;12.52;;
43150;SDS011;28755;51.478;5.702;2024-01-06T05:48:13;18.30;;;12.68;;
43150;SDS011;28755;51.478;5.702;2024-01-06T05:50:38;17.40;;;12.02;;
43150;SDS011;28755;51.478;5.702;2024-01-06T05:53:04;18.05;;;11.98;;
43150;SDS011;28755;51.478;5.702;2024-01-06T05:55:30;16.70;;;12.15;;
43150;SDS011;28755;51.478;5.702;2024-01-06T05:57:56;15.57;;;11.52;;
43150;SDS011;28755;51.478;5.702;2024-01-06T06:00:21;17.80;;;11.95;;
43150;SDS011;28755;51.478;5.702;2024-01-06T06:02:47;18.13;;;12.00;;
43150;SDS011;28755;51.478;5.702;2024-01-06T06:05:13;15.07;;;11.18;;
43150;SDS011;28755;51.478;5.702;2024-01-06T06:07:39;15.40;;;11.43;;
43150;SDS011;28755;51.478;5.702;2024-01-06T06:10:08;14.35;;;10.95;;
43150;SDS011;28755;51.478;5.702;2024-01-06T06:12:35;16.83;;;11.95;;
43150;SDS011;28755;51.478;5.702;2024-01-06T06:15:01;14.85;;;10.88;;
43150;SDS011;28755;51.478;5.702;2024-01-06T06:17:28;16.58;;;11.32;;
43150;SDS011;28755;51.478;5.702;2024-01-06T06:19:58;16.27;;;10.93;;
43150;SDS011;28755;51.478;5.702;2024-01-06T06:22:24;19.05;;;12.40;;
43150;SDS011;28755;51.478;5.702;2024-01-06T06:24:55;18.23;;;11.85;;
43150;SDS011;28755;51.478;5.702;2024-01-06T06:27:22;16.80;;;11.25;;
43150;SDS011;28755;51.478;5.702;2024-01-06T06:29:48;17.23;;;11.75;;
43150;SDS011;28755;51.478;5.702;2024-01-06T06:32:13;18.33;;;12.25;;
43150;SDS011;28755;51.478;5.702;2024-01-06T06:34:39;17.30;;;11.55;;
43150;SDS011;28755;51.478;5.702;2024-01-06T06:37:04;13.82;;;9.77;;
43150;SDS011;28755;51.478;5.702;2024-01-06T06:39:30;13.82;;;9.80;;
43150;SDS011;28755;51.478;5.702;2024-01-06T06:41:57;15.55;;;11.07;;
43150;SDS011;28755;51.478;5.702;2024-01-06T06:44:22;15.60;;;10.80;;
43150;SDS011;28755;51.478;5.702;2024-01-06T06:46:48;16.60;;;11.70;;
43150;SDS011;28755;51.478;5.702;2024-01-06T06:49:14;16.23;;;10.43;;
43150;SDS011;28755;51.478;5.702;2024-01-06T06:51:40;16.25;;;11.23;;
43150;SDS011;28755;51.478;5.702;2024-01-06T06:54:11;16.80;;;11.52;;
43150;SDS011;28755;51.478;5.702;2024-01-06T06:56:37;17.48;;;11.60;;
43150;SDS011;28755;51.478;5.702;2024-01-06T06:59:03;16.77;;;10.52;;
43150;SDS011;28755;51.478;5.702;2024-01-06T07:01:29;17.00;;;10.80;;
43150;SDS011;28755;51.478;5.702;2024-01-06T07:03:55;18.52;;;10.95;;
43150;SDS011;28755;51.478;5.702;2024-01-06T07:06:21;18.75;;;11.18;;
43150;SDS011;28755;51.478;5.702;2024-01-06T07:08:47;19.80;;;11.43;;
43150;SDS011;28755;51.478;5.702;2024-01-06T07:11:12;17.55;;;11.13;;
43150;SDS011;28755;51.478;5.702;2024-01-06T07:13:40;15.90;;;10.52;;
43150;SDS011;28755;51.478;5.702;2024-01-06T07:16:05;15.15;;;10.65;;
43150;SDS011;28755;51.478;5.702;2024-01-06T07:18:32;17.92;;;10.82;;
43150;SDS011;28755;51.478;5.702;2024-01-06T07:20:58;15.90;;;10.50;;
43150;SDS011;28755;51.478;5.702;2024-01-06T07:23:23;17.00;;;9.85;;
43150;SDS011;28755;51.478;5.702;2024-01-06T07:25:49;17.02;;;10.98;;
43150;SDS011;28755;51.478;5.702;2024-01-06T07:28:14;16.08;;;10.05;;
43150;SDS011;28755;51.478;5.702;2024-01-06T07:30:40;15.75;;;10.00;;
43150;SDS011;28755;51.478;5.702;2024-01-06T07:33:06;18.50;;;10.70;;
43150;SDS011;28755;51.478;5.702;2024-01-06T07:35:31;15.18;;;10.60;;
43150;SDS011;28755;51.478;5.702;2024-01-06T07:37:57;17.10;;;10.70;;
43150;SDS011;28755;51.478;5.702;2024-01-06T07:40:22;16.33;;;10.40;;
43150;SDS011;28755;51.478;5.702;2024-01-06T07:42:50;19.70;;;11.38;;
43150;SDS011;28755;51.478;5.702;2024-01-06T07:45:16;24.08;;;12.27;;
43150;SDS011;28755;51.478;5.702;2024-01-06T07:47:42;19.52;;;11.32;;
43150;SDS011;28755;51.478;5.702;2024-01-06T07:50:08;19.38;;;12.38;;
43150;SDS011;28755;51.478;5.702;2024-01-06T07:52:34;20.05;;;12.75;;
43150;SDS011;28755;51.478;5.702;2024-01-06T07:54:59;18.30;;;11.98;;
43150;SDS011;28755;51.478;5.702;2024-01-06T07:57:25;18.40;;;11.48;;
43150;SDS011;28755;51.478;5.702;2024-01-06T07:59:50;18.17;;;11.73;;
43150;SDS011;28755;51.478;5.702;2024-01-06T08:02:16;17.75;;;11.50;;
43150;SDS011;28755;51.478;5.702;2024-01-06T08:04:42;20.15;;;12.80;;
43150;SDS011;28755;51.478;5.702;2024-01-06T08:07:07;20.67;;;11.75;;
43150;SDS011;28755;51.478;5.702;2024-01-06T08:09:33;18.30;;;11.93;;
43150;SDS011;28755;51.478;5.702;2024-01-06T08:11:59;16.42;;;11.07;;
43150;SDS011;28755;51.478;5.702;2024-01-06T08:14:25;18.45;;;11.82;;
43150;SDS011;28755;51.478;5.702;2024-01-06T08:16:50;21.35;;;11.52;;
43150;SDS011;28755;51.478;5.702;2024-01-06T08:19:16;18.48;;;11.25;;
43150;SDS011;28755;51.478;5.702;2024-01-06T08:21:41;20.27;;;12.82;;
43150;SDS011;28755;51.478;5.702;2024-01-06T08:24:07;19.63;;;11.85;;
43150;SDS011;28755;51.478;5.702;2024-01-06T08:26:33;16.70;;;11.10;;
43150;SDS011;28755;51.478;5.702;2024-01-06T08:28:58;20.15;;;12.57;;
43150;SDS011;28755;51.478;5.702;2024-01-06T08:31:24;22.42;;;12.48;;
43150;SDS011;28755;51.478;5.702;2024-01-06T08:33:50;21.83;;;13.40;;
43150;SDS011;28755;51.478;5.702;2024-01-06T08:36:15;18.38;;;12.15;;
43150;SDS011;28755;51.478;5.702;2024-01-06T08:38:41;20.77;;;12.48;;
43150;SDS011;28755;51.478;5.702;2024-01-06T08:41:07;19.25;;;12.75;;
43150;SDS011;28755;51.478;5.702;2024-01-06T08:43:33;19.17;;;12.27;;
43150;SDS011;28755;51.478;5.702;2024-01-06T08:45:58;19.25;;;12.23;;
43150;SDS011;28755;51.478;5.702;2024-01-06T08:48:25;19.92;;;13.13;;
43150;SDS011;28755;51.478;5.702;2024-01-06T08:50:51;23.25;;;13.30;;
43150;SDS011;28755;51.478;5.702;2024-01-06T08:53:16;20.58;;;12.77;;
43150;SDS011;28755;51.478;5.702;2024-01-06T08:55:42;20.90;;;13.10;;
43150;SDS011;28755;51.478;5.702;2024-01-06T08:58:07;21.40;;;13.18;;
43150;SDS011;28755;51.478;5.702;2024-01-06T09:00:33;20.65;;;13.63;;
43150;SDS011;28755;51.478;5.702;2024-01-06T09:02:59;24.35;;;14.75;;
43150;SDS011;28755;51.478;5.702;2024-01-06T09:05:25;22.77;;;13.70;;
43150;SDS011;28755;51.478;5.702;2024-01-06T09:07:50;23.90;;;14.63;;
43150;SDS011;28755;51.478;5.702;2024-01-06T09:10:16;22.40;;;14.85;;
43150;SDS011;28755;51.478;5.702;2024-01-06T09:12:43;24.48;;;15.07;;
43150;SDS011;28755;51.478;5.702;2024-01-06T09:15:08;26.48;;;16.25;;
43150;SDS011;28755;51.478;5.702;2024-01-06T09:17:34;28.02;;;17.52;;
43150;SDS011;28755;51.478;5.702;2024-01-06T09:20:00;24.95;;;16.13;;
43150;SDS011;28755;51.478;5.702;2024-01-06T09:22:26;24.98;;;16.13;;
43150;SDS011;28755;51.478;5.702;2024-01-06T09:24:52;26.38;;;15.63;;
43150;SDS011;28755;51.478;5.702;2024-01-06T09:27:17;22.17;;;14.77;;
43150;SDS011;28755;51.478;5.702;2024-01-06T09:29:44;22.65;;;14.50;;
43150;SDS011;28755;51.478;5.702;2024-01-06T09:32:09;23.77;;;14.63;;
43150;SDS011;28755;51.478;5.702;2024-01-06T09:34:35;24.13;;;15.40;;
43150;SDS011;28755;51.478;5.702;2024-01-06T09:37:01;24.40;;;13.55;;
43150;SDS011;28755;51.478;5.702;2024-01-06T09:39:26;22.10;;;14.27;;
43150;SDS011;28755;51.478;5.702;2024-01-06T09:41:52;20.45;;;13.07;;
43150;SDS011;28755;51.478;5.702;2024-01-06T09:44:17;22.65;;;14.02;;
43150;SDS011;28755;51.478;5.702;2024-01-06T09:46:43;22.30;;;14.10;;
43150;SDS011;28755;51.478;5.702;2024-01-06T09:49:09;20.45;;;13.07;;
43150;SDS011;28755;51.478;5.702;2024-01-06T09:51:36;21.33;;;14.23;;
43150;SDS011;28755;51.478;5.702;2024-01-06T09:54:05;22.50;;;13.18;;
43150;SDS011;28755;51.478;5.702;2024-01-06T09:59:00;21.98;;;14.57;;
43150;SDS011;28755;51.478;5.702;2024-01-06T10:01:27;22.98;;;14.07;;
43150;SDS011;28755;51.478;5.702;2024-01-06T10:03:52;19.95;;;13.02;;
43150;SDS011;28755;51.478;5.702;2024-01-06T10:06:18;21.75;;;13.32;;
43150;SDS011;28755;51.478;5.702;2024-01-06T10:08:49;20.23;;;12.95;;
43150;SDS011;28755;51.478;5.702;2024-01-06T10:11:15;22.63;;;13.45;;
43150;SDS011;28755;51.478;5.702;2024-01-06T10:13:41;19.33;;;12.90;;
43150;SDS011;28755;51.478;5.702;2024-01-06T10:16:07;18.50;;;12.95;;
43150;SDS011;28755;51.478;5.702;2024-01-06T10:18:33;20.08;;;13.68;;
43150;SDS011;28755;51.478;5.702;2024-01-06T10:21:02;19.30;;;12.35;;
43150;SDS011;28755;51.478;5.702;2024-01-06T10:23:31;20.45;;;12.23;;
43150;SDS011;28755;51.478;5.702;2024-01-06T10:25:57;17.67;;;12.68;;
43150;SDS011;28755;51.478;5.702;2024-01-06T10:28:22;17.38;;;11.98;;
43150;SDS011;28755;51.478;5.702;2024-01-06T10:30:52;21.35;;;12.32;;
43150;SDS011;28755;51.478;5.702;2024-01-06T10:33:19;20.05;;;13.05;;
43150;SDS011;28755;51.478;5.702;2024-01-06T10:35:46;22.02;;;12.85;;
43150;SDS011;28755;51.478;5.702;2024-01-06T10:38:12;22.00;;;12.23;;
43150;SDS011;28755;51.478;5.702;2024-01-06T10:40:38;20.77;;;12.90;;
43150;SDS011;28755;51.478;5.702;2024-01-06T10:43:04;22.58;;;14.48;;
43150;SDS011;28755;51.478;5.702;2024-01-06T10:45:30;24.70;;;14.00;;
43150;SDS011;28755;51.478;5.702;2024-01-06T10:47:56;19.85;;;12.93;;
43150;SDS011;28755;51.478;5.702;2024-01-06T10:50:22;20.65;;;12.85;;
43150;SDS011;28755;51.478;5.702;2024-01-06T10:52:48;22.73;;;12.90;;
43150;SDS011;28755;51.478;5.702;2024-01-06T10:55:15;23.95;;;14.68;;
43150;SDS011;28755;51.478;5.702;2024-01-06T10:57:45;20.60;;;12.55;;
43150;SDS011;28755;51.478;5.702;2024-01-06T11:00:11;20.08;;;13.15;;
43150;SDS011;28755;51.478;5.702;2024-01-06T11:02:38;22.42;;;14.07;;
43150;SDS011;28755;51.478;5.702;2024-01-06T11:05:04;24.80;;;13.93;;
43150;SDS011;28755;51.478;5.702;2024-01-06T11:07:35;23.05;;;13.57;;
43150;SDS011;28755;51.478;5.702;2024-01-06T11:12:34;20.67;;;13.00;;
43150;SDS011;28755;51.478;5.702;2024-01-06T11:15:00;17.98;;;13.10;;
43150;SDS011;28755;51.478;5.702;2024-01-06T11:20:23;19.92;;;13.38;;
43150;SDS011;28755;51.478;5.702;2024-01-06T11:22:49;22.00;;;13.52;;
43150;SDS011;28755;51.478;5.702;2024-01-06T11:25:16;25.63;;;14.95;;
43150;SDS011;28755;51.478;5.702;2024-01-06T11:27:43;23.75;;;14.05;;
43150;SDS011;28755;51.478;5.702;2024-01-06T11:30:23;22.23;;;14.15;;
43150;SDS011;28755;51.478;5.702;2024-01-06T11:32:50;19.63;;;13.30;;
43150;SDS011;28755;51.478;5.702;2024-01-06T11:35:18;20.08;;;14.02;;
43150;SDS011;28755;51.478;5.702;2024-01-06T11:45:25;22.38;;;14.63;;
43150;SDS011;28755;51.478;5.702;2024-01-06T11:47:54;26.40;;;16.23;;
43150;SDS011;28755;51.478;5.702;2024-01-06T11:50:22;20.90;;;13.63;;
43150;SDS011;28755;51.478;5.702;2024-01-06T11:52:48;21.42;;;13.68;;
43150;SDS011;28755;51.478;5.702;2024-01-06T11:55:16;24.60;;;14.70;;
43150;SDS011;28755;51.478;5.702;2024-01-06T11:57:43;31.67;;;17.52;;
43150;SDS011;28755;51.478;5.702;2024-01-06T12:00:09;25.58;;;16.73;;
43150;SDS011;28755;51.478;5.702;2024-01-06T12:02:36;28.85;;;15.70;;
43150;SDS011;28755;51.478;5.702;2024-01-06T12:05:01;20.50;;;13.40;;
43150;SDS011;28755;51.478;5.702;2024-01-06T12:07:27;22.20;;;14.38;;
43150;SDS011;28755;51.478;5.702;2024-01-06T12:10:02;21.02;;;13.15;;
43150;SDS011;28755;51.478;5.702;2024-01-06T12:12:28;20.88;;;13.68;;
43150;SDS011;28755;51.478;5.702;2024-01-06T12:14:54;21.42;;;14.50;;
43150;SDS011;28755;51.478;5.702;2024-01-06T12:17:20;24.73;;;15.20;;
43150;SDS011;28755;51.478;5.702;2024-01-06T12:19:46;22.75;;;14.98;;
43150;SDS011;28755;51.478;5.702;2024-01-06T12:22:13;23.55;;;16.05;;
43150;SDS011;28755;51.478;5.702;2024-01-06T12:24:40;27.15;;;14.93;;
43150;SDS011;28755;51.478;5.702;2024-01-06T12:27:07;23.52;;;15.20;;
43150;SDS011;28755;51.478;5.702;2024-01-06T12:29:42;19.95;;;13.18;;
43150;SDS011;28755;51.478;5.702;2024-01-06T12:32:09;20.75;;;13.40;;
43150;SDS011;28755;51.478;5.702;2024-01-06T12:34:35;18.77;;;13.75;;
43150;SDS011;28755;51.478;5.702;2024-01-06T12:37:01;20.77;;;13.23;;
43150;SDS011;28755;51.478;5.702;2024-01-06T12:39:28;20.40;;;12.85;;
43150;SDS011;28755;51.478;5.702;2024-01-06T12:41:54;21.10;;;12.75;;
43150;SDS011;28755;51.478;5.702;2024-01-06T12:44:20;18.65;;;12.80;;
43150;SDS011;28755;51.478;5.702;2024-01-06T12:46:46;20.75;;;13.48;;
43150;SDS011;28755;51.478;5.702;2024-01-06T12:49:12;19.05;;;12.02;;
43150;SDS011;28755;51.478;5.702;2024-01-06T12:51:38;18.42;;;12.50;;
43150;SDS011;28755;51.478;5.702;2024-01-06T12:54:04;18.88;;;12.65;;
43150;SDS011;28755;51.478;5.702;2024-01-06T12:56:30;22.17;;;13.68;;
43150;SDS011;28755;51.478;5.702;2024-01-06T12:58:56;20.92;;;12.95;;
43150;SDS011;28755;51.478;5.702;2024-01-06T13:01:22;21.45;;;13.73;;
43150;SDS011;28755;51.478;5.702;2024-01-06T13:03:47;23.73;;;15.30;;
43150;SDS011;28755;51.478;5.702;2024-01-06T13:06:13;19.33;;;12.18;;
43150;SDS011;28755;51.478;5.702;2024-01-06T13:08:40;19.80;;;13.13;;
43150;SDS011;28755;51.478;5.702;2024-01-06T13:11:07;18.77;;;13.23;;
43150;SDS011;28755;51.478;5.702;2024-01-06T13:13:33;18.55;;;13.18;;
43150;SDS011;28755;51.478;5.702;2024-01-06T13:15:59;17.83;;;12.13;;
43150;SDS011;28755;51.478;5.702;2024-01-06T13:18:26;18.35;;;12.35;;
43150;SDS011;28755;51.478;5.702;2024-01-06T13:20:53;17.48;;;13.18;;
43150;SDS011;28755;51.478;5.702;2024-01-06T13:23:19;18.63;;;12.13;;
43150;SDS011;28755;51.478;5.702;2024-01-06T13:25:44;19.67;;;12.27;;
43150;SDS011;28755;51.478;5.702;2024-01-06T13:28:10;18.63;;;12.88;;
43150;SDS011;28755;51.478;5.702;2024-01-06T13:30:37;20.08;;;13.07;;
43150;SDS011;28755;51.478;5.702;2024-01-06T13:33:04;17.52;;;12.38;;
43150;SDS011;28755;51.478;5.702;2024-01-06T13:35:30;18.35;;;12.48;;
43150;SDS011;28755;51.478;5.702;2024-01-06T13:37:56;18.88;;;13.05;;
43150;SDS011;28755;51.478;5.702;2024-01-06T13:40:22;22.50;;;14.88;;
43150;SDS011;28755;51.478;5.702;2024-01-06T13:42:49;18.45;;;13.07;;
43150;SDS011;28755;51.478;5.702;2024-01-06T13:45:16;18.15;;;12.77;;
43150;SDS011;28755;51.478;5.702;2024-01-06T13:47:42;16.98;;;12.50;;
43150;SDS011;28755;51.478;5.702;2024-01-06T13:50:13;18.40;;;12.35;;
43150;SDS011;28755;51.478;5.702;2024-01-06T13:52:40;19.38;;;12.38;;
43150;SDS011;28755;51.478;5.702;2024-01-06T13:55:06;18.92;;;12.15;;
43150;SDS011;28755;51.478;5.702;2024-01-06T13:57:33;18.02;;;12.35;;
43150;SDS011;28755;51.478;5.702;2024-01-06T13:59:59;18.92;;;12.50;;
43150;SDS011;28755;51.478;5.702;2024-01-06T14:02:25;19.88;;;12.07;;
43150;SDS011;28755;51.478;5.702;2024-01-06T14:04:51;20.30;;;13.30;;
43150;SDS011;28755;51.478;5.702;2024-01-06T14:07:17;19.60;;;12.32;;
43150;SDS011;28755;51.478;5.702;2024-01-06T14:09:44;17.83;;;12.23;;
43150;SDS011;28755;51.478;5.702;2024-01-06T14:12:10;20.83;;;13.85;;
43150;SDS011;28755;51.478;5.702;2024-01-06T14:14:36;19.73;;;13.15;;
43150;SDS011;28755;51.478;5.702;2024-01-06T14:17:01;33.08;;;17.80;;
43150;SDS011;28755;51.478;5.702;2024-01-06T14:19:27;19.83;;;13.73;;
43150;SDS011;28755;51.478;5.702;2024-01-06T14:21:53;19.38;;;13.18;;
43150;SDS011;28755;51.478;5.702;2024-01-06T14:24:18;18.92;;;13.20;;
43150;SDS011;28755;51.478;5.702;2024-01-06T14:26:48;19.77;;;13.48;;
43150;SDS011;28755;51.478;5.702;2024-01-06T14:29:14;19.63;;;12.88;;